createdAt,value
2023-05-16T00:04:00.026Z,85.45
2023-05-16T00:09:01.939Z,85.65
2023-05-16T00:14:03.870Z,85.88
2023-05-16T00:19:06.532Z,86.07
2023-05-16T00:24:08.645Z,85.96
2023-05-16T00:29:10.267Z,85.91
2023-05-16T00:34:12.216Z,85.89
2023-05-16T00:39:13.874Z,86.06
2023-05-16T00:44:15.674Z,85.73
2023-05-16T00:49:18.375Z,85.80
2023-05-16T00:54:22.866Z,86.09
2023-05-16T00:59:25.641Z,86.25
2023-05-16T01:04:28.123Z,86.39
2023-05-16T01:09:31.298Z,86.37
2023-05-16T01:14:46.553Z,86.47
2023-05-16T01:20:05.440Z,86.36
2023-05-16T01:25:10.870Z,86.36
2023-05-16T01:30:17.380Z,85.93
2023-05-16T01:35:19.284Z,86.35
2023-05-16T01:40:33.486Z,86.31
2023-05-16T01:45:39.208Z,86.20
2023-05-16T01:50:46.320Z,86.69
2023-05-16T01:55:51.919Z,86.90
2023-05-16T02:00:54.366Z,87.10
2023-05-16T02:05:56.980Z,86.68
2023-05-16T02:10:58.866Z,87.01
2023-05-16T02:16:00.600Z,87.16
2023-05-16T02:21:02.363Z,87.75
2023-05-16T02:26:04.453Z,87.90
2023-05-16T02:31:06.433Z,88.02
2023-05-16T02:36:08.565Z,87.95
2023-05-16T02:41:10.402Z,87.96
2023-05-16T02:46:31.752Z,87.65
2023-05-16T02:51:33.591Z,87.74
2023-05-16T02:56:35.983Z,87.67
2023-05-16T03:01:37.857Z,87.43
2023-05-16T03:06:40.291Z,88.03
2023-05-16T03:11:42.515Z,87.80
2023-05-16T03:16:44.610Z,87.87
2023-05-16T03:21:47.420Z,87.80
2023-05-16T03:26:49.612Z,87.92
2023-05-16T03:31:53.476Z,88.03
2023-05-16T03:36:55.541Z,88.46
2023-05-16T03:41:57.521Z,88.52
2023-05-16T03:46:59.277Z,88.33
2023-05-16T03:52:01.020Z,88.14
2023-05-16T03:57:03.738Z,88.59
2023-05-16T04:02:06.546Z,89.05
2023-05-16T04:07:08.287Z,88.69
2023-05-16T04:12:10.090Z,88.66
2023-05-16T04:17:12.875Z,88.90
2023-05-16T04:22:14.632Z,88.92
2023-05-16T04:27:16.789Z,89.04
2023-05-16T04:32:18.500Z,89.08
2023-05-16T04:37:20.797Z,89.20
2023-05-16T04:42:22.492Z,89.11
2023-05-16T04:47:24.287Z,89.46
2023-05-16T04:52:26.237Z,89.28
2023-05-16T04:57:28.122Z,89.35
2023-05-16T05:02:29.813Z,89.33
2023-05-16T05:07:32.759Z,89.54
2023-05-16T05:12:35.683Z,89.93
2023-05-16T05:17:37.877Z,90.43
2023-05-16T05:22:39.873Z,90.43
2023-05-16T05:27:41.902Z,90.15
2023-05-16T05:32:43.615Z,89.95
2023-05-16T05:37:46.350Z,90.34
2023-05-16T05:42:48.103Z,89.37
2023-05-16T05:47:49.895Z,88.45
2023-05-16T05:52:51.809Z,88.54
2023-05-16T05:57:53.486Z,88.12
2023-05-16T06:02:55.960Z,88.10
2023-05-16T06:07:58.471Z,87.92
2023-05-16T06:13:00.149Z,88.26
2023-05-16T06:18:02.096Z,89.33
2023-05-16T06:23:03.959Z,89.94
2023-05-16T06:28:05.707Z,90.32
2023-05-16T06:33:07.521Z,90.83
2023-05-16T06:38:09.476Z,90.88
2023-05-16T06:43:12.066Z,91.36
2023-05-16T06:48:15.661Z,92.01
2023-05-16T06:53:18.571Z,92.51
2023-05-16T06:58:20.363Z,92.64
2023-05-16T07:03:22.519Z,92.67
2023-05-16T07:08:25.905Z,92.75
2023-05-16T07:13:27.737Z,93.28
2023-05-16T07:18:29.600Z,92.97
2023-05-16T07:23:31.422Z,92.91
2023-05-16T07:28:33.133Z,92.84
2023-05-16T07:33:34.936Z,92.81
2023-05-16T07:38:36.814Z,92.08
2023-05-16T07:43:38.610Z,92.17
2023-05-16T07:48:40.580Z,91.67
2023-05-16T07:53:42.475Z,91.24
2023-05-16T07:58:44.313Z,91.09
2023-05-16T08:03:46.541Z,90.45
2023-05-16T08:08:48.825Z,89.83
2023-05-16T08:13:50.496Z,89.15
2023-05-16T08:18:52.622Z,88.12
2023-05-16T08:23:54.719Z,88.14
2023-05-16T08:28:56.505Z,86.32
2023-05-16T08:33:58.253Z,86.61
2023-05-16T08:39:00.508Z,86.43
2023-05-16T08:44:02.246Z,86.17
2023-05-16T08:49:07.813Z,85.66
2023-05-16T08:54:13.526Z,85.73
2023-05-16T08:59:16.339Z,86.08
2023-05-16T09:04:18.644Z,86.50
2023-05-16T09:09:20.454Z,85.96
2023-05-16T09:14:22.510Z,85.72
2023-05-16T09:19:24.383Z,85.63
2023-05-16T09:24:26.308Z,86.17
2023-05-16T09:29:28.234Z,86.11
2023-05-16T09:34:30.043Z,86.64
2023-05-16T09:39:31.860Z,86.57
2023-05-16T09:44:33.717Z,86.93
2023-05-16T09:49:37.678Z,86.83
2023-05-16T09:54:39.959Z,86.37
2023-05-16T09:59:41.667Z,86.78
2023-05-16T10:04:43.545Z,86.45
2023-05-16T10:09:46.574Z,86.69
2023-05-16T10:14:50.381Z,87.02
2023-05-16T10:19:54.120Z,87.03
2023-05-16T10:25:08.157Z,86.89
2023-05-16T10:30:10.918Z,87.44
2023-05-16T10:35:13.046Z,86.36
2023-05-16T10:40:15.384Z,85.91
2023-05-16T10:45:18.934Z,84.34
2023-05-16T10:50:44.626Z,84.19
2023-05-16T10:55:59.098Z,83.46
2023-05-16T11:01:29.545Z,83.05
2023-05-16T11:06:32.764Z,82.04
2023-05-16T11:11:48.602Z,81.10
2023-05-16T11:17:14.209Z,80.08
2023-05-16T11:22:18.827Z,77.61
2023-05-16T11:27:22.830Z,69.82
2023-05-16T11:32:24.691Z,65.50
2023-05-16T11:37:39.562Z,67.46
2023-05-16T11:49:09.470Z,73.38
2023-05-16T11:54:13.037Z,75.53
2023-05-16T11:59:15.714Z,76.98
2023-05-16T12:04:18.049Z,79.86
2023-05-16T12:09:20.107Z,80.40
2023-05-16T12:14:22.531Z,81.99
2023-05-16T12:19:24.773Z,83.71
2023-05-16T12:24:30.989Z,83.72
2023-05-16T12:29:32.791Z,84.91
2023-05-16T12:34:34.935Z,86.46
2023-05-16T12:39:38.292Z,89.29
2023-05-16T12:44:44.844Z,92.81
2023-05-16T12:49:47.935Z,92.94
2023-05-16T12:54:49.850Z,93.56
2023-05-16T12:59:51.806Z,94.10
2023-05-16T13:04:53.611Z,93.75
2023-05-16T13:09:55.404Z,94.15
2023-05-16T13:14:59.580Z,93.99
2023-05-16T13:20:02.707Z,94.61
2023-05-16T13:25:06.281Z,94.99
2023-05-16T13:30:08.655Z,94.53
2023-05-16T13:35:10.453Z,94.71
2023-05-16T13:40:12.582Z,94.75
2023-05-16T13:45:14.319Z,95.93
2023-05-16T13:50:16.080Z,96.93
2023-05-16T13:55:18.578Z,97.55
2023-05-16T14:00:35.852Z,98.22
2023-05-16T14:05:42.342Z,96.86
2023-05-16T14:10:45.167Z,97.91
2023-05-16T14:15:47.201Z,97.34
2023-05-16T14:20:50.715Z,98.06
2023-05-16T14:25:52.486Z,99.25
2023-05-16T14:30:54.480Z,98.55
2023-05-16T14:35:56.474Z,97.47
2023-05-16T14:40:58.230Z,97.97
2023-05-16T14:46:01.015Z,99.04
2023-05-16T14:51:04.105Z,99.54
2023-05-16T14:56:06.157Z,99.91
2023-05-16T15:01:08.473Z,99.40
2023-05-16T15:06:10.363Z,99.28
2023-05-16T15:11:12.113Z,98.15
2023-05-16T15:16:14.352Z,98.40
2023-05-16T15:21:16.302Z,98.01
2023-05-16T15:26:18.739Z,98.12
2023-05-16T15:31:20.487Z,98.68
2023-05-16T15:36:22.178Z,98.89
2023-05-16T15:41:50.084Z,98.61
2023-05-16T15:46:45.946Z,98.16
2023-05-16T15:51:48.027Z,98.37
2023-05-16T15:56:49.800Z,98.51
2023-05-16T16:01:51.627Z,98.46
2023-05-16T16:06:53.448Z,98.80
2023-05-16T16:11:56.595Z,98.04
2023-05-16T16:16:58.479Z,97.71
2023-05-16T16:22:00.594Z,95.71
2023-05-16T16:27:02.373Z,95.49
2023-05-16T16:32:04.269Z,96.22
2023-05-16T16:37:06.405Z,96.89
2023-05-16T16:42:08.451Z,96.47
2023-05-16T16:47:10.461Z,95.91
2023-05-16T16:52:12.205Z,96.87
2023-05-16T16:57:14.748Z,96.92
2023-05-16T17:02:16.725Z,94.19
2023-05-16T17:07:18.703Z,91.89
2023-05-16T17:12:22.059Z,85.77
2023-05-16T17:17:25.124Z,87.18
2023-05-16T17:22:28.042Z,86.31
2023-05-16T17:27:30.119Z,87.18
2023-05-16T17:32:32.302Z,84.33
2023-05-16T17:37:34.242Z,85.91
2023-05-16T17:42:37.062Z,86.08
2023-05-16T17:47:39.533Z,84.05
2023-05-16T17:52:41.364Z,84.40
2023-05-16T17:57:43.742Z,82.88
2023-05-16T18:02:45.474Z,83.03
2023-05-16T18:07:47.399Z,80.87
2023-05-16T18:12:49.310Z,81.08
2023-05-16T18:17:51.076Z,80.67
2023-05-16T18:22:53.136Z,81.90
2023-05-16T18:27:54.875Z,81.82
2023-05-16T18:32:59.680Z,80.48
2023-05-16T18:38:03.956Z,81.47
2023-05-16T18:43:07.357Z,81.69
2023-05-16T18:48:11.916Z,82.38
2023-05-16T18:53:16.940Z,83.07
2023-05-16T18:58:19.728Z,83.12
2023-05-16T19:03:22.879Z,83.25
2023-05-16T19:08:29.191Z,83.08
2023-05-16T19:13:41.062Z,82.26
2023-05-16T19:18:43.652Z,82.99
2023-05-16T19:23:51.667Z,84.04
2023-05-16T19:28:53.523Z,84.06
2023-05-16T19:33:57.368Z,84.87
2023-05-16T19:38:59.235Z,83.26
2023-05-16T19:44:01.376Z,80.16
2023-05-16T19:49:03.455Z,79.62
2023-05-16T19:54:05.620Z,78.66
2023-05-16T19:59:07.351Z,78.11
2023-05-16T20:04:09.410Z,79.02
2023-05-16T20:09:11.551Z,79.06
2023-05-16T20:14:13.389Z,78.52
2023-05-16T20:19:15.375Z,78.51
2023-05-16T20:24:17.745Z,78.39
2023-05-16T20:29:19.616Z,77.63
2023-05-16T20:34:21.348Z,77.91
2023-05-16T20:39:23.272Z,77.20
2023-05-16T20:44:26.312Z,77.85
2023-05-16T20:49:28.124Z,77.58
2023-05-16T20:54:29.994Z,77.32
2023-05-16T20:59:32.311Z,76.83
2023-05-16T21:04:34.128Z,77.26
2023-05-16T21:09:37.750Z,77.02
2023-05-16T21:14:39.982Z,76.11
2023-05-16T21:19:42.276Z,76.04
2023-05-16T21:24:44.276Z,75.06
2023-05-16T21:29:46.024Z,75.53
2023-05-16T21:34:47.756Z,76.07
2023-05-16T21:39:49.591Z,75.92
2023-05-16T21:44:51.534Z,74.17
2023-05-16T21:49:53.286Z,75.10
2023-05-16T21:54:56.294Z,75.25
2023-05-16T21:59:58.841Z,74.73
2023-05-16T22:05:01.236Z,75.19
2023-05-16T22:10:05.113Z,74.83
2023-05-16T22:15:07.458Z,74.55
2023-05-16T22:20:09.657Z,74.27
2023-05-16T22:25:11.431Z,74.59
2023-05-16T22:30:13.526Z,74.08
2023-05-16T22:35:15.760Z,73.84
2023-05-16T22:40:17.769Z,74.02
2023-05-16T22:45:19.708Z,73.07
2023-05-16T22:50:21.972Z,73.36
2023-05-16T22:55:23.828Z,73.01
2023-05-16T23:00:25.737Z,72.82
2023-05-16T23:05:27.630Z,72.78
2023-05-16T23:10:30.459Z,73.23
2023-05-16T23:15:32.247Z,72.00
2023-05-16T23:20:34.055Z,72.42
2023-05-16T23:25:35.811Z,72.98
2023-05-16T23:30:37.927Z,72.79
2023-05-16T23:35:40.258Z,72.99
2023-05-16T23:40:41.966Z,73.19
2023-05-16T23:45:44.220Z,73.32
2023-05-16T23:50:46.062Z,73.49
2023-05-16T23:55:47.706Z,73.18
